createdAt,value
2019-03-28T00:01:25.904Z,12.77
2019-03-28T00:03:56.897Z,12.67
2019-03-28T00:06:27.939Z,11.57
2019-03-28T00:08:59.298Z,11.53
2019-03-28T00:11:30.306Z,11.57
2019-03-28T00:14:01.350Z,10.53
2019-03-28T00:16:32.458Z,15.10
2019-03-28T00:19:03.459Z,14.63
2019-03-28T00:21:34.501Z,10.73
2019-03-28T00:24:13.608Z,10.13
2019-03-28T00:26:44.713Z,11.93
2019-03-28T00:29:15.737Z,13.93
2019-03-28T00:31:48.023Z,11.70
2019-03-28T00:34:19.306Z,14.17
2019-03-28T00:36:50.304Z,12.80
2019-03-28T00:39:21.377Z,11.43
2019-03-28T00:41:52.390Z,12.80
2019-03-28T00:44:23.777Z,11.53
2019-03-28T00:46:54.804Z,13.43
2019-03-28T00:49:25.797Z,13.40
2019-03-28T00:51:56.992Z,14.33
2019-03-28T00:54:28.026Z,12.33
2019-03-28T00:56:59.722Z,13.13
2019-03-28T00:59:31.446Z,13.20
2019-03-28T01:02:02.867Z,15.90
2019-03-28T01:04:33.870Z,13.23
2019-03-28T01:07:04.893Z,14.33
2019-03-28T01:09:35.893Z,11.83
2019-03-28T01:12:07.192Z,16.20
2019-03-28T01:14:38.204Z,12.73
2019-03-28T01:17:10.284Z,12.00
2019-03-28T01:19:42.332Z,16.13
2019-03-28T01:22:13.405Z,14.83
2019-03-28T01:24:44.720Z,14.10
2019-03-28T01:27:15.744Z,11.70
2019-03-28T01:29:46.752Z,14.70
2019-03-28T01:32:17.805Z,11.37
2019-03-28T01:34:48.817Z,14.33
2019-03-28T01:37:19.817Z,13.07
2019-03-28T01:39:50.829Z,14.63
2019-03-28T01:42:21.869Z,15.17
2019-03-28T01:44:52.981Z,13.33
2019-03-28T01:47:24.187Z,15.80
2019-03-28T01:49:55.192Z,14.60
2019-03-28T01:52:26.558Z,13.97
2019-03-28T01:54:57.524Z,14.90
2019-03-28T01:57:28.536Z,15.47
2019-03-28T01:59:59.553Z,16.80
2019-03-28T02:02:30.697Z,15.90
2019-03-28T02:05:02.501Z,15.10
2019-03-28T02:07:33.497Z,16.13
2019-03-28T02:10:04.877Z,14.00
2019-03-28T02:12:36.259Z,16.73
2019-03-28T02:15:08.882Z,19.70
2019-03-28T02:17:39.895Z,14.53
2019-03-28T02:20:11.333Z,14.00
2019-03-28T02:22:42.360Z,15.87
2019-03-28T02:25:13.401Z,16.57
2019-03-28T02:27:44.463Z,14.83
2019-03-28T02:30:16.950Z,17.47
2019-03-28T02:32:47.988Z,16.50
2019-03-28T02:35:19.002Z,14.63
2019-03-28T02:37:50.028Z,17.40
2019-03-28T02:40:21.201Z,15.20
2019-03-28T02:42:53.401Z,14.17
2019-03-28T02:45:24.580Z,17.37
2019-03-28T02:47:55.817Z,18.13
2019-03-28T02:50:26.898Z,17.77
2019-03-28T02:52:57.920Z,18.03
2019-03-28T02:55:28.950Z,17.40
2019-03-28T02:57:59.971Z,19.77
2019-03-28T03:00:31.124Z,19.23
2019-03-28T03:03:02.199Z,16.23
2019-03-28T03:05:33.238Z,18.43
2019-03-28T03:08:04.582Z,16.63
2019-03-28T03:10:36.111Z,16.87
2019-03-28T03:13:07.219Z,20.23
2019-03-28T03:15:38.208Z,16.10
2019-03-28T03:18:10.525Z,18.53
2019-03-28T03:20:41.537Z,18.60
2019-03-28T03:23:12.533Z,19.37
2019-03-28T03:25:43.556Z,18.77
2019-03-28T03:28:14.629Z,17.80
2019-03-28T03:30:45.625Z,17.67
2019-03-28T03:33:16.962Z,19.07
2019-03-28T03:35:48.345Z,20.83
2019-03-28T03:38:19.377Z,19.30
2019-03-28T03:41:01.389Z,19.07
2019-03-28T03:43:33.364Z,19.07
2019-03-28T03:46:04.357Z,17.77
2019-03-28T03:48:35.378Z,17.50
2019-03-28T03:51:06.388Z,18.30
2019-03-28T03:53:37.869Z,20.77
2019-03-28T03:56:08.890Z,19.30
2019-03-28T03:58:40.052Z,19.13
2019-03-28T04:01:11.307Z,19.37
2019-03-28T04:03:42.288Z,19.50
2019-03-28T04:06:13.329Z,18.77
2019-03-28T04:08:44.515Z,18.30
2019-03-28T04:11:15.602Z,20.67
2019-03-28T04:13:46.678Z,22.47
2019-03-28T04:16:17.682Z,20.53
2019-03-28T04:18:48.727Z,20.80
2019-03-28T04:21:20.040Z,19.73
2019-03-28T04:23:51.068Z,19.70
2019-03-28T04:26:22.220Z,18.13
2019-03-28T04:28:53.617Z,18.93
2019-03-28T04:31:25.101Z,19.87
2019-03-28T04:33:56.141Z,20.40
2019-03-28T04:36:27.223Z,22.27
2019-03-28T04:38:58.358Z,19.73
2019-03-28T04:41:29.497Z,17.80
2019-03-28T04:44:01.599Z,22.30
2019-03-28T04:46:32.605Z,19.00
2019-03-28T04:49:04.039Z,21.73
2019-03-28T04:51:35.109Z,24.70
2019-03-28T04:54:06.235Z,23.93
2019-03-28T04:56:37.753Z,25.27
2019-03-28T04:59:09.245Z,20.87
2019-03-28T05:01:40.260Z,23.73
2019-03-28T05:04:11.349Z,22.43
2019-03-28T05:06:42.515Z,20.57
2019-03-28T05:09:13.938Z,22.07
2019-03-28T05:11:44.957Z,22.57
2019-03-28T05:14:15.971Z,20.90
2019-03-28T05:16:47.017Z,21.57
2019-03-28T05:19:18.025Z,21.10
2019-03-28T05:21:49.420Z,24.03
2019-03-28T07:06:56.749Z,44.03
2019-03-28T07:09:27.789Z,34.50
2019-03-28T07:11:59.041Z,42.10
2019-03-28T07:14:30.196Z,41.13
2019-03-28T07:17:01.242Z,42.63
2019-03-28T07:19:33.492Z,39.30
2019-03-28T07:22:04.505Z,39.60
2019-03-28T07:24:35.545Z,39.07
2019-03-28T07:27:06.729Z,36.97
2019-03-28T07:29:50.341Z,35.00
2019-03-28T07:32:11.179Z,46.70
2019-03-28T07:34:43.742Z,38.90
2019-03-28T07:37:14.901Z,39.13
2019-03-28T07:39:46.033Z,37.77
2019-03-28T07:42:17.083Z,35.43
2019-03-28T07:44:55.704Z,37.30
2019-03-28T07:47:31.544Z,34.43
2019-03-28T07:50:02.602Z,36.63
2019-03-28T07:52:33.698Z,33.07
2019-03-28T07:55:05.631Z,34.10
2019-03-28T07:57:36.900Z,32.20
2019-03-28T08:00:09.406Z,35.90
2019-03-28T08:02:40.646Z,33.83
2019-03-28T08:05:12.128Z,32.17
2019-03-28T08:07:45.366Z,27.27
2019-03-28T08:10:17.277Z,28.27
2019-03-28T08:12:48.414Z,29.23
2019-03-28T08:15:19.742Z,30.03
2019-03-28T08:17:50.823Z,31.00
2019-03-28T08:20:22.160Z,28.67
2019-03-28T08:22:53.191Z,28.50
2019-03-28T08:25:24.226Z,28.33
2019-03-28T08:27:57.637Z,26.53
2019-03-28T08:30:36.211Z,26.47
2019-03-28T08:33:07.601Z,25.77
2019-03-28T08:35:38.759Z,24.03
2019-03-28T08:38:10.444Z,26.37
2019-03-28T08:40:43.262Z,24.27
2019-03-28T08:43:14.915Z,22.10
2019-03-28T08:45:46.075Z,26.10
2019-03-28T08:48:17.165Z,23.83
2019-03-28T08:50:48.230Z,22.10
2019-03-28T08:53:19.261Z,24.17
2019-03-28T08:55:50.310Z,20.30
2019-03-28T08:58:21.363Z,21.03
2019-03-28T09:00:53.144Z,22.03
2019-03-28T09:03:24.293Z,19.40
2019-03-28T09:05:55.290Z,20.43
2019-03-28T09:08:26.319Z,21.00
2019-03-28T09:10:57.346Z,20.20
2019-03-28T09:13:28.446Z,19.33
2019-03-28T09:15:59.621Z,18.97
2019-03-28T09:18:32.187Z,20.17
2019-03-28T09:21:04.261Z,15.60
2019-03-28T09:23:35.391Z,18.83
2019-03-28T09:26:06.501Z,17.50
2019-03-28T09:28:37.494Z,17.53
2019-03-28T09:31:19.269Z,14.87
2019-03-28T09:33:41.859Z,13.47
2019-03-28T09:36:12.897Z,15.87
2019-03-28T09:38:43.969Z,11.43
2019-03-28T09:41:15.160Z,13.37
2019-03-28T09:43:55.394Z,12.17
2019-03-28T09:46:18.893Z,12.30
2019-03-28T09:48:50.225Z,11.03
2019-03-28T09:51:21.259Z,11.63
2019-03-28T09:53:52.265Z,11.90
2019-03-28T09:56:23.276Z,10.57
2019-03-28T09:58:54.335Z,11.47
2019-03-28T10:01:25.399Z,12.00
2019-03-28T10:03:56.804Z,13.70
2019-03-28T10:06:27.860Z,10.67
2019-03-28T10:08:58.873Z,8.57
2019-03-28T10:11:29.853Z,9.87
2019-03-28T10:14:00.908Z,9.13
2019-03-28T10:16:31.906Z,8.77
2019-03-28T10:19:02.929Z,10.37
2019-03-28T10:21:37.284Z,8.63
2019-03-28T10:24:06.777Z,9.30
2019-03-28T10:26:37.845Z,8.60
2019-03-28T10:29:09.532Z,9.23
2019-03-28T10:31:41.339Z,8.93
2019-03-28T10:34:12.921Z,9.77
2019-03-28T10:36:43.920Z,7.47
2019-03-28T10:39:15.060Z,9.13
2019-03-28T10:41:46.086Z,7.53
2019-03-28T10:44:17.469Z,7.87
2019-03-28T10:46:48.541Z,8.10
2019-03-28T10:49:19.663Z,8.60
2019-03-28T10:51:50.698Z,8.00
2019-03-28T10:54:25.507Z,7.30
2019-03-28T10:56:57.887Z,8.87
2019-03-28T10:59:27.716Z,6.93
2019-03-28T11:01:58.716Z,6.07
2019-03-28T11:04:29.891Z,6.00
2019-03-28T11:07:00.979Z,7.17
2019-03-28T11:09:32.052Z,6.97
2019-03-28T11:12:03.085Z,6.03
2019-03-28T11:14:34.160Z,7.00
2019-03-28T11:17:05.203Z,6.90
2019-03-28T11:19:36.555Z,5.70
2019-03-28T11:22:07.598Z,5.83
2019-03-28T11:24:39.035Z,5.73
2019-03-28T11:27:10.477Z,5.73
2019-03-28T11:29:41.593Z,4.40
2019-03-28T11:32:12.977Z,7.07
2019-03-28T11:34:44.208Z,7.17
2019-03-28T11:37:25.867Z,5.70
2019-03-28T11:39:48.317Z,4.40
2019-03-28T11:42:19.411Z,4.80
2019-03-28T11:44:50.598Z,5.23
2019-03-28T11:47:22.406Z,5.40
2019-03-28T11:49:53.959Z,5.67
2019-03-28T11:52:25.760Z,6.43
2019-03-28T11:54:57.895Z,5.63
2019-03-28T11:57:29.703Z,4.20
2019-03-28T12:00:01.481Z,4.67
2019-03-28T12:02:34.179Z,4.30
2019-03-28T12:05:06.041Z,4.13
2019-03-28T12:07:37.786Z,4.13
2019-03-28T12:10:11.027Z,5.40
2019-03-28T12:12:43.032Z,5.70
2019-03-28T12:15:15.945Z,3.53
2019-03-28T12:17:47.324Z,5.80
2019-03-28T12:20:18.718Z,3.80
2019-03-28T12:22:49.740Z,4.27
2019-03-28T12:25:21.942Z,6.20
2019-03-28T12:27:53.363Z,3.70
2019-03-28T12:30:24.569Z,3.30
2019-03-28T12:32:55.589Z,3.30
2019-03-28T12:35:26.797Z,5.20
2019-03-28T12:37:58.159Z,3.80
2019-03-28T12:40:29.244Z,3.47
2019-03-28T12:43:00.657Z,2.70
2019-03-28T12:45:32.054Z,2.57
2019-03-28T12:48:03.441Z,7.07
2019-03-28T12:50:34.496Z,4.93
2019-03-28T12:53:05.518Z,5.17
2019-03-28T12:55:36.592Z,3.20
2019-03-28T12:58:07.642Z,3.17
2019-03-28T13:00:39.140Z,3.57
2019-03-28T13:03:10.607Z,3.37
2019-03-28T13:05:41.658Z,3.80
2019-03-28T13:08:12.751Z,7.40
2019-03-28T13:10:43.771Z,6.40
2019-03-28T13:13:14.854Z,2.80
2019-03-28T13:15:47.003Z,2.77
2019-03-28T13:18:18.161Z,2.53
2019-03-28T13:20:49.214Z,3.03
2019-03-28T13:23:20.271Z,2.77
2019-03-28T13:25:51.614Z,4.37
2019-03-28T13:28:22.715Z,3.17
2019-03-28T13:30:53.748Z,8.78
2019-03-28T13:33:24.784Z,4.00
2019-03-28T13:35:57.039Z,4.47
2019-03-28T13:38:28.367Z,3.55
2019-03-28T13:40:59.413Z,3.40
2019-03-28T13:43:30.805Z,4.67
2019-03-28T13:46:02.210Z,3.72
2019-03-28T13:48:34.886Z,3.40
2019-03-28T13:51:06.019Z,4.03
2019-03-28T13:53:39.667Z,4.00
2019-03-28T13:56:09.745Z,3.70
2019-03-28T13:58:40.835Z,3.50
2019-03-28T14:01:11.981Z,4.62
2019-03-28T14:03:43.117Z,4.83
2019-03-28T14:06:14.250Z,3.87
2019-03-28T14:08:45.290Z,3.80
2019-03-28T14:11:16.418Z,3.47
2019-03-28T14:13:47.641Z,4.40
2019-03-28T14:16:20.069Z,3.70
2019-03-28T14:18:51.088Z,4.00
2019-03-28T14:21:22.515Z,3.95
2019-03-28T14:23:53.911Z,3.92
2019-03-28T14:26:24.971Z,4.17
2019-03-28T14:28:56.065Z,5.23
2019-03-28T14:31:27.109Z,4.13
2019-03-28T14:33:58.668Z,5.20
2019-03-28T14:36:29.758Z,5.67
2019-03-28T14:39:00.785Z,4.50
2019-03-28T14:41:33.542Z,4.30
2019-03-28T14:44:04.602Z,4.30
2019-03-28T14:46:37.243Z,4.57
2019-03-28T14:49:08.287Z,4.13
2019-03-28T14:51:39.722Z,4.37
2019-03-28T14:54:10.916Z,5.80
2019-03-28T14:56:42.464Z,4.67
2019-03-28T14:59:14.458Z,4.50
2019-03-28T15:01:45.464Z,4.53
2019-03-28T15:04:16.534Z,6.43
2019-03-28T15:06:47.636Z,9.00
2019-03-28T15:09:19.153Z,5.93
2019-03-28T15:11:50.599Z,4.77
2019-03-28T15:14:21.772Z,5.73
2019-03-28T15:16:52.981Z,3.83
2019-03-28T15:19:24.075Z,3.93
2019-03-28T15:21:55.206Z,5.40
2019-03-28T15:24:26.723Z,4.37
2019-03-28T15:26:58.107Z,4.53
2019-03-28T15:29:29.438Z,6.37
2019-03-28T15:32:00.539Z,3.93
2019-03-28T15:34:31.963Z,5.63
2019-03-28T15:37:02.984Z,4.57
2019-03-28T15:39:34.018Z,3.63
2019-03-28T15:42:05.110Z,4.10
2019-03-28T15:44:39.173Z,4.27
2019-03-28T15:47:08.913Z,5.97
2019-03-28T15:49:40.799Z,4.60
2019-03-28T15:52:11.852Z,3.47
2019-03-28T15:54:44.019Z,3.97
2019-03-28T15:57:17.060Z,2.83
2019-03-28T15:59:48.238Z,4.23
2019-03-28T16:02:19.442Z,3.70
2019-03-28T16:04:50.581Z,4.00
2019-03-28T16:07:23.268Z,4.73
2019-03-28T16:09:54.377Z,3.07
2019-03-28T16:12:25.517Z,4.07
2019-03-28T16:14:56.834Z,3.93
2019-03-28T16:17:28.834Z,5.03
2019-03-28T16:20:00.321Z,2.83
2019-03-28T16:22:31.517Z,5.20
2019-03-28T16:25:02.846Z,3.30
2019-03-28T16:27:34.911Z,4.00
2019-03-28T16:30:07.861Z,3.27
2019-03-28T16:32:39.871Z,3.90
2019-03-28T16:35:11.254Z,5.60
2019-03-28T16:37:42.297Z,3.23
2019-03-28T16:40:14.254Z,4.23
2019-03-28T16:42:48.580Z,4.97
2019-03-28T16:45:19.754Z,3.40
2019-03-28T16:47:50.752Z,4.30
2019-03-28T16:50:21.785Z,5.23
2019-03-28T16:52:53.213Z,3.90
2019-03-28T16:55:26.443Z,5.00
2019-03-28T16:57:57.692Z,3.60
2019-03-28T17:00:39.402Z,4.77
2019-03-28T17:03:10.474Z,4.50
2019-03-28T17:05:42.597Z,5.60
2019-03-28T17:08:14.033Z,3.57
2019-03-28T17:10:49.789Z,4.00
2019-03-28T17:13:20.788Z,4.03
2019-03-28T17:15:52.015Z,5.07
2019-03-28T17:18:23.025Z,4.30
2019-03-28T17:20:54.013Z,5.80
2019-03-28T17:23:25.212Z,6.07
2019-03-28T17:25:56.185Z,5.00
2019-03-28T17:28:27.297Z,4.47
2019-03-28T17:30:58.757Z,5.67
2019-03-28T17:33:31.902Z,6.43
2019-03-28T17:36:03.224Z,8.70
2019-03-28T17:38:34.361Z,4.30
2019-03-28T17:41:06.659Z,8.20
2019-03-28T17:43:37.862Z,7.33
2019-03-28T17:46:12.166Z,5.10
2019-03-28T17:48:41.569Z,6.10
2019-03-28T17:51:12.578Z,5.03
2019-03-28T17:53:43.585Z,5.67
2019-03-28T17:56:14.697Z,5.80
2019-03-28T17:58:45.732Z,6.23
2019-03-28T18:01:16.878Z,6.90
2019-03-28T18:03:47.930Z,9.50
2019-03-28T18:06:18.948Z,6.93
2019-03-28T18:08:49.955Z,6.37
2019-03-28T18:11:21.719Z,6.00
2019-03-28T18:13:52.864Z,6.93
2019-03-28T18:16:23.876Z,6.23
2019-03-28T18:18:54.964Z,8.60
2019-03-28T18:21:26.125Z,6.43
2019-03-28T18:23:57.186Z,7.63
2019-03-28T18:26:28.238Z,8.30
2019-03-28T18:28:59.728Z,8.37
2019-03-28T18:31:30.865Z,7.63
2019-03-28T18:34:02.178Z,7.33
2019-03-28T18:36:34.031Z,7.10
2019-03-28T18:39:10.018Z,8.53
2019-03-28T18:41:44.097Z,8.13
2019-03-28T18:44:15.747Z,7.63
2019-03-28T18:46:47.235Z,9.07
2019-03-28T18:49:18.285Z,7.87
2019-03-28T18:51:49.293Z,9.13
2019-03-28T18:54:21.573Z,8.57
2019-03-28T18:56:52.964Z,8.83
2019-03-28T18:59:24.029Z,8.93
2019-03-28T19:01:55.022Z,7.87
2019-03-28T19:04:26.679Z,9.53
2019-03-28T19:06:57.998Z,8.37
2019-03-28T19:09:29.585Z,7.57
2019-03-28T19:12:00.849Z,6.27
2019-03-28T19:14:32.952Z,7.60
2019-03-28T19:17:04.043Z,8.63
2019-03-28T19:19:39.525Z,8.20
2019-03-28T19:22:07.865Z,7.10
2019-03-28T19:24:39.341Z,9.97
2019-03-28T19:27:10.380Z,7.27
2019-03-28T19:29:41.757Z,8.80
2019-03-28T19:32:12.790Z,6.63
2019-03-28T19:34:43.848Z,6.93
2019-03-28T19:37:14.840Z,9.77
2019-03-28T19:39:45.942Z,9.30
2019-03-28T19:42:17.789Z,7.93
